createdAt,value
2022-11-15T00:00:54.109Z,99678.34
2022-11-15T00:02:07.246Z,99674.25
2022-11-15T00:03:20.641Z,99672.53
2022-11-15T00:04:24.349Z,99678.31
2022-11-15T00:05:27.954Z,99668.53
2022-11-15T00:06:38.976Z,99681.91
2022-11-15T00:07:55.038Z,99675.69
2022-11-15T00:09:01.429Z,99672.19
2022-11-15T00:10:05.549Z,99675.69
2022-11-15T00:11:12.199Z,99676.84
2022-11-15T00:12:17.063Z,99682.84
2022-11-15T00:13:20.936Z,99678.41
2022-11-15T00:14:24.515Z,99674.06
2022-11-15T00:15:28.097Z,99675.78
2022-11-15T00:16:39.653Z,99668.69
2022-11-15T00:17:43.473Z,99667.94
2022-11-15T00:18:50.669Z,99662.84
2022-11-15T00:19:55.045Z,99665.50
2022-11-15T00:21:07.535Z,99663.03
2022-11-15T00:22:11.209Z,99663.03
2022-11-15T00:23:15.006Z,99671.22
2022-11-15T00:24:20.815Z,99670.31
2022-11-15T00:25:24.393Z,99664.84
2022-11-15T00:26:28.525Z,99664.84
2022-11-15T00:27:32.537Z,99664.00
2022-11-15T00:28:36.137Z,99660.50
2022-11-15T00:29:44.408Z,99656.88
2022-11-15T00:30:48.175Z,99652.59
2022-11-15T00:31:51.864Z,99658.81
2022-11-15T00:32:55.820Z,99653.72
2022-11-15T00:33:59.885Z,99655.53
2022-11-15T00:35:03.686Z,99661.91
2022-11-15T00:36:13.129Z,99662.19
2022-11-15T00:37:16.739Z,99655.03
2022-11-15T00:38:20.352Z,99654.63
2022-11-15T00:39:25.955Z,99657.97
2022-11-15T00:40:30.676Z,99650.06
2022-11-15T00:41:34.451Z,99649.34
2022-11-15T00:42:49.171Z,99651.16
2022-11-15T00:43:54.392Z,99645.00
2022-11-15T00:44:58.131Z,99652.94
2022-11-15T00:47:26.747Z,99639.66
2022-11-15T00:48:39.830Z,99636.94
2022-11-15T00:49:46.916Z,99638.88
2022-11-15T00:50:54.404Z,99644.81
2022-11-15T00:52:07.470Z,99641.16
2022-11-15T00:53:50.070Z,99642.00
2022-11-15T00:55:00.885Z,99635.75
2022-11-15T00:56:11.514Z,99633.91
2022-11-15T00:57:21.740Z,99639.00
2022-11-15T00:58:29.332Z,99638.94
2022-11-15T00:59:36.141Z,99631.94
2022-11-15T01:00:57.940Z,99630.53
2022-11-15T01:02:02.756Z,99630.69
2022-11-15T01:03:09.507Z,99632.47
2022-11-15T01:04:24.515Z,99636.81
2022-11-15T01:05:42.913Z,99635.03
2022-11-15T01:06:54.481Z,99635.31
2022-11-15T01:08:00.139Z,99635.22
2022-11-15T01:09:27.033Z,99638.03
2022-11-15T01:10:33.405Z,99635.03
2022-11-15T01:11:47.197Z,99633.31
2022-11-15T01:14:59.221Z,99624.69
2022-11-15T01:16:37.729Z,99631.69
2022-11-15T01:17:49.359Z,99628.25
2022-11-15T01:18:54.410Z,99627.28
2022-11-15T01:19:58.620Z,99624.56
2022-11-15T01:21:30.949Z,99628.75
2022-11-15T01:22:38.513Z,99627.97
2022-11-15T01:23:42.863Z,99630.75
2022-11-15T01:24:46.508Z,99628.13
2022-11-15T01:25:50.412Z,99619.41
2022-11-15T01:27:00.996Z,99622.84
2022-11-15T01:28:04.659Z,99625.50
2022-11-15T01:29:14.493Z,99616.75
2022-11-15T01:30:18.186Z,99622.00
2022-11-15T01:31:30.737Z,99620.13
2022-11-15T01:32:37.861Z,99618.25
2022-11-15T01:33:58.568Z,99616.63
2022-11-15T01:35:20.992Z,99620.97
2022-11-15T01:36:27.684Z,99619.03
2022-11-15T01:37:35.965Z,99621.06
2022-11-15T01:38:43.879Z,99625.25
2022-11-15T01:39:48.423Z,99616.28
2022-11-15T01:40:55.231Z,99619.59
2022-11-15T01:42:19.985Z,99617.81
2022-11-15T01:43:46.280Z,99616.97
2022-11-15T01:45:04.109Z,99619.75
2022-11-15T01:46:24.146Z,99619.59
2022-11-15T01:47:46.010Z,99609.91
2022-11-15T01:48:54.960Z,99621.25
2022-11-15T01:50:28.657Z,99613.56
2022-11-15T01:51:38.360Z,99616.97
2022-11-15T01:52:50.538Z,99616.28
2022-11-15T01:55:48.273Z,99607.06
2022-11-15T01:57:16.520Z,99605.19
2022-11-15T01:59:01.114Z,99605.13
2022-11-15T02:00:21.333Z,99602.50
2022-11-15T02:01:36.231Z,99606.00
2022-11-15T02:02:45.030Z,99599.91
2022-11-15T02:04:23.952Z,99599.91
2022-11-15T02:05:34.805Z,99596.28
2022-11-15T02:06:44.583Z,99600.72
2022-11-15T02:07:50.177Z,99596.41
2022-11-15T02:08:56.840Z,99596.38
2022-11-15T02:10:13.145Z,99598.13
2022-11-15T02:11:16.878Z,99599.13
2022-11-15T02:12:24.460Z,99593.84
2022-11-15T02:13:29.364Z,99586.88
2022-11-15T02:14:34.463Z,99594.16
2022-11-15T02:16:03.197Z,99589.81
2022-11-15T02:17:49.750Z,99594.31
2022-11-15T02:19:36.434Z,99592.34
2022-11-15T02:21:22.433Z,99587.16
2022-11-15T02:22:40.663Z,99590.56
2022-11-15T02:24:03.401Z,99583.75
2022-11-15T02:25:58.510Z,99589.16
2022-11-15T02:27:42.715Z,99580.47
2022-11-15T02:29:25.312Z,99581.41
2022-11-15T02:30:54.493Z,99580.56
2022-11-15T02:32:50.490Z,99576.91
2022-11-15T02:34:43.447Z,99581.31
2022-11-15T02:36:24.743Z,99574.25
2022-11-15T02:38:07.944Z,99577.75
2022-11-15T02:40:08.709Z,99569.06
2022-11-15T02:41:46.293Z,99568.03
2022-11-15T02:44:00.064Z,99568.91
2022-11-15T02:45:41.027Z,99566.91
2022-11-15T02:47:17.454Z,99561.50
2022-11-15T02:48:27.556Z,99565.00
2022-11-15T02:51:28.209Z,99570.88
2022-11-15T02:52:49.567Z,99566.44
2022-11-15T02:56:28.833Z,99564.06
2022-11-15T02:58:01.870Z,99562.91
2022-11-15T03:00:00.707Z,99563.81
2022-11-15T03:01:53.931Z,99555.13
2022-11-15T03:04:04.837Z,99553.41
2022-11-15T03:05:50.770Z,99548.34
2022-11-15T03:07:26.896Z,99552.22
2022-11-15T03:08:48.189Z,99554.72
2022-11-15T03:10:48.394Z,99544.69
2022-11-15T03:12:38.029Z,99542.88
2022-11-15T03:14:40.832Z,99543.78
2022-11-15T03:16:38.144Z,99552.53
2022-11-15T03:18:24.438Z,99547.31
2022-11-15T03:20:05.004Z,99547.19
2022-11-15T03:21:25.316Z,99549.81
2022-11-15T03:22:43.556Z,99542.84
2022-11-15T03:23:51.295Z,99542.28
2022-11-15T03:25:06.627Z,99543.91
2022-11-15T03:26:22.029Z,99545.53
2022-11-15T03:27:36.635Z,99539.56
2022-11-15T03:29:36.130Z,99534.19
2022-11-15T03:30:45.308Z,99542.13
2022-11-15T03:32:33.645Z,99534.38
2022-11-15T03:33:39.422Z,99535.22
2022-11-15T03:35:16.708Z,99525.66
2022-11-15T03:36:29.891Z,99525.81
2022-11-15T03:38:02.007Z,99531.00
2022-11-15T03:39:17.673Z,99525.72
2022-11-15T03:41:07.049Z,99517.81
2022-11-15T03:42:34.370Z,99517.91
2022-11-15T03:44:18.301Z,99516.19
2022-11-15T03:45:45.569Z,99523.25
2022-11-15T03:47:15.557Z,99511.78
2022-11-15T03:48:25.932Z,99513.47
2022-11-15T03:49:36.011Z,99505.63
2022-11-15T03:50:40.189Z,99512.63
2022-11-15T03:51:44.047Z,99509.22
2022-11-15T03:52:51.459Z,99509.22
2022-11-15T03:54:05.676Z,99509.06
2022-11-15T03:55:15.706Z,99509.06
2022-11-15T03:56:21.960Z,99511.59
2022-11-15T03:57:25.714Z,99505.47
2022-11-15T03:58:29.611Z,99506.56
2022-11-15T03:59:35.684Z,99509.91
2022-11-15T04:00:40.503Z,99503.84
2022-11-15T04:01:45.641Z,99495.09
2022-11-15T04:02:50.962Z,99498.66
2022-11-15T04:03:54.798Z,99497.66
2022-11-15T04:05:00.022Z,99486.16
2022-11-15T04:06:04.976Z,99490.44
2022-11-15T04:07:11.522Z,99482.75
2022-11-15T04:08:15.621Z,99486.31
2022-11-15T04:09:20.063Z,99479.09
2022-11-15T04:10:23.612Z,99481.03
2022-11-15T04:11:27.504Z,99482.84
2022-11-15T04:12:44.539Z,99480.41
2022-11-15T04:13:51.280Z,99476.16
2022-11-15T04:15:08.419Z,99477.56
2022-11-15T04:16:12.115Z,99480.81
2022-11-15T04:17:16.079Z,99482.59
2022-11-15T04:18:19.942Z,99483.53
2022-11-15T04:19:42.247Z,99470.19
2022-11-15T04:21:05.220Z,99473.59
2022-11-15T04:22:35.605Z,99467.47
2022-11-15T04:24:15.630Z,99468.16
2022-11-15T04:25:29.696Z,99460.31
2022-11-15T04:26:44.587Z,99459.41
2022-11-15T04:27:48.607Z,99454.97
2022-11-15T04:29:16.315Z,99460.19
2022-11-15T04:30:24.754Z,99457.69
2022-11-15T04:31:34.383Z,99453.25
2022-11-15T04:32:40.629Z,99455.81
2022-11-15T04:33:53.091Z,99454.28
2022-11-15T04:35:14.987Z,99447.31
2022-11-15T04:36:41.403Z,99451.00
2022-11-15T04:37:49.598Z,99443.41
2022-11-15T04:39:02.771Z,99441.06
2022-11-15T04:40:18.904Z,99443.69
2022-11-15T04:41:42.907Z,99446.41
2022-11-15T04:43:03.404Z,99445.66
2022-11-15T04:44:25.270Z,99441.44
2022-11-15T04:46:15.467Z,99436.25
2022-11-15T04:47:38.656Z,99436.72
2022-11-15T04:49:06.263Z,99439.81
2022-11-15T04:50:49.081Z,99431.81
2022-11-15T04:51:55.137Z,99435.47
2022-11-15T04:53:19.376Z,99440.03
2022-11-15T04:54:36.233Z,99433.78
2022-11-15T04:56:04.291Z,99435.47
2022-11-15T04:57:29.814Z,99433.47
2022-11-15T04:59:04.314Z,99430.59
2022-11-15T05:00:21.605Z,99429.75
2022-11-15T05:01:30.242Z,99435.94
2022-11-15T05:03:02.188Z,99436.13
2022-11-15T05:04:25.626Z,99440.59
2022-11-15T05:07:02.897Z,99433.78
2022-11-15T05:08:08.226Z,99425.88
2022-11-15T05:09:11.990Z,99422.38
2022-11-15T05:10:16.658Z,99418.09
2022-11-15T05:11:22.684Z,99415.63
2022-11-15T05:12:31.570Z,99423.44
2022-11-15T05:13:39.743Z,99421.75
2022-11-15T05:14:47.109Z,99418.09
2022-11-15T05:15:57.244Z,99429.56
2022-11-15T05:17:02.762Z,99419.94
2022-11-15T05:18:23.788Z,99414.03
2022-11-15T05:19:30.172Z,99410.81
2022-11-15T05:20:57.306Z,99420.53
2022-11-15T05:22:03.885Z,99421.63
2022-11-15T05:23:07.970Z,99413.84
2022-11-15T05:24:21.750Z,99421.84
2022-11-15T05:25:49.165Z,99420.06
2022-11-15T05:27:56.812Z,99407.34
2022-11-15T05:29:25.685Z,99410.06
2022-11-15T05:31:44.774Z,99411.34
2022-11-15T05:32:58.485Z,99406.22
2022-11-15T05:34:52.652Z,99403.50
2022-11-15T05:40:03.088Z,99397.94
2022-11-15T05:41:11.452Z,99405.56
2022-11-15T05:43:00.383Z,99403.56
2022-11-15T05:44:31.746Z,99401.72
2022-11-15T05:46:12.204Z,99406.09
2022-11-15T05:47:54.299Z,99409.69
2022-11-15T05:49:45.295Z,99397.53
2022-11-15T05:51:02.730Z,99409.63
2022-11-15T05:52:48.494Z,99412.25
2022-11-15T05:54:52.410Z,99414.00
2022-11-15T05:56:36.568Z,99413.63
2022-11-15T05:57:49.865Z,99408.41
2022-11-15T05:59:12.526Z,99413.66
2022-11-15T06:00:28.632Z,99405.91
2022-11-15T06:01:47.525Z,99406.78
2022-11-15T06:02:58.146Z,99404.16
2022-11-15T06:05:27.608Z,99402.50
2022-11-15T06:06:33.145Z,99403.56
2022-11-15T06:07:51.210Z,99398.31
2022-11-15T06:08:55.378Z,99393.09
2022-11-15T06:09:59.010Z,99397.66
2022-11-15T06:11:08.294Z,99400.38
2022-11-15T06:12:15.712Z,99397.88
2022-11-15T06:13:20.816Z,99395.59
2022-11-15T06:14:25.696Z,99393.19
2022-11-15T06:17:36.448Z,99395.28
2022-11-15T06:19:37.329Z,99389.31
2022-11-15T06:20:52.583Z,99391.88
2022-11-15T06:22:02.306Z,99392.72
2022-11-15T06:23:09.243Z,99391.22
2022-11-15T06:24:16.727Z,99391.03
2022-11-15T06:26:08.661Z,99391.22
2022-11-15T06:28:19.680Z,99390.69
2022-11-15T06:29:28.621Z,99385.97
2022-11-15T06:30:44.802Z,99388.09
2022-11-15T06:31:55.239Z,99392.38
2022-11-15T06:33:11.875Z,99398.34
2022-11-15T06:34:16.906Z,99391.19
2022-11-15T06:35:22.423Z,99392.38
2022-11-15T06:36:28.137Z,99392.31
2022-11-15T06:37:36.026Z,99395.72
2022-11-15T06:38:45.058Z,99392.31
2022-11-15T06:39:49.807Z,99395.88
2022-11-15T06:41:16.212Z,99387.25
2022-11-15T06:42:38.198Z,99394.00
2022-11-15T06:43:58.231Z,99395.06
2022-11-15T06:47:59.418Z,99393.22
2022-11-15T06:49:14.479Z,99391.38
2022-11-15T06:50:40.825Z,99399.13
2022-11-15T06:52:08.677Z,99399.28
2022-11-15T06:53:24.117Z,99396.72
2022-11-15T06:54:42.887Z,99398.50
2022-11-15T06:56:18.337Z,99393.31
2022-11-15T06:57:28.649Z,99399.44
2022-11-15T06:58:47.415Z,99398.63
2022-11-15T06:59:59.923Z,99392.44
2022-11-15T07:01:18.448Z,99397.06
2022-11-15T07:02:32.288Z,99398.00
2022-11-15T07:03:46.358Z,99397.50
2022-11-15T07:05:12.139Z,99397.59
2022-11-15T07:06:31.207Z,99401.09
2022-11-15T07:07:47.821Z,99397.50
2022-11-15T07:09:31.772Z,99388.66
2022-11-15T07:11:37.970Z,99400.75
2022-11-15T07:12:40.411Z,99396.34
2022-11-15T07:14:05.643Z,99393.69
2022-11-15T07:15:27.664Z,99402.41
2022-11-15T07:16:40.867Z,99401.47
2022-11-15T07:18:08.949Z,99399.81
2022-11-15T07:19:23.921Z,99404.09
2022-11-15T07:20:35.586Z,99407.59
2022-11-15T07:21:44.366Z,99405.09
2022-11-15T07:22:54.133Z,99405.09
2022-11-15T07:24:23.875Z,99404.22
2022-11-15T07:25:30.979Z,99396.13
2022-11-15T07:26:40.309Z,99394.22
2022-11-15T07:27:44.450Z,99391.56
2022-11-15T07:28:50.330Z,99386.38
2022-11-15T07:30:00.786Z,99382.72
2022-11-15T07:31:18.242Z,99386.19
2022-11-15T07:32:30.285Z,99377.44
2022-11-15T07:33:45.593Z,99373.69
2022-11-15T07:34:58.357Z,99370.81
2022-11-15T07:36:09.158Z,99376.81
2022-11-15T07:37:24.868Z,99368.69
2022-11-15T07:38:32.727Z,99373.00
2022-11-15T07:39:46.612Z,99376.47
2022-11-15T07:41:07.906Z,99372.25
2022-11-15T07:42:35.656Z,99375.66
2022-11-15T07:43:57.324Z,99379.78
2022-11-15T07:45:07.917Z,99373.66
2022-11-15T07:46:15.210Z,99376.09
2022-11-15T07:47:22.210Z,99380.34
2022-11-15T07:48:44.131Z,99379.50
2022-11-15T07:49:57.804Z,99380.34
2022-11-15T07:51:08.816Z,99379.31
2022-11-15T07:52:17.863Z,99379.31
2022-11-15T07:53:28.066Z,99378.28
2022-11-15T07:54:39.748Z,99365.97
2022-11-15T07:55:54.608Z,99367.69
2022-11-15T07:57:07.286Z,99364.75
2022-11-15T07:58:19.693Z,99369.91
2022-11-15T07:59:24.514Z,99363.56
2022-11-15T08:00:38.674Z,99366.97
2022-11-15T08:01:48.684Z,99363.56
2022-11-15T08:04:34.481Z,99367.53
2022-11-15T08:05:55.295Z,99365.53
2022-11-15T08:07:19.037Z,99364.59
2022-11-15T08:08:27.325Z,99357.25
2022-11-15T08:09:34.814Z,99351.81
2022-11-15T08:10:49.457Z,99351.06
2022-11-15T08:11:56.444Z,99355.25
2022-11-15T08:13:03.609Z,99358.50
2022-11-15T08:14:07.331Z,99358.22
2022-11-15T08:15:11.538Z,99355.81
2022-11-15T08:16:15.684Z,99353.72
2022-11-15T08:17:19.327Z,99347.22
2022-11-15T08:18:23.254Z,99348.75
2022-11-15T08:19:27.029Z,99350.31
2022-11-15T08:20:32.344Z,99351.09
2022-11-15T08:21:36.446Z,99352.88
2022-11-15T08:22:47.017Z,99358.06
2022-11-15T08:23:53.530Z,99354.50
2022-11-15T08:25:03.406Z,99351.88
2022-11-15T08:26:16.500Z,99359.78
2022-11-15T08:27:23.257Z,99357.94
2022-11-15T08:28:42.521Z,99357.00
2022-11-15T08:29:47.467Z,99349.69
2022-11-15T08:31:02.079Z,99346.19
2022-11-15T08:32:27.518Z,99348.75
2022-11-15T08:33:42.118Z,99345.53
2022-11-15T08:34:49.927Z,99348.06
2022-11-15T08:35:59.061Z,99350.53
2022-11-15T08:37:18.525Z,99339.84
2022-11-15T08:38:25.496Z,99335.34
2022-11-15T08:39:31.430Z,99341.38
2022-11-15T08:40:47.256Z,99340.38
2022-11-15T08:42:02.476Z,99340.38
2022-11-15T08:43:14.791Z,99344.56
2022-11-15T08:44:27.931Z,99344.88
2022-11-15T08:46:10.614Z,99344.66
2022-11-15T08:47:16.137Z,99337.28
2022-11-15T08:48:35.652Z,99344.34
2022-11-15T08:49:39.975Z,99338.75
2022-11-15T08:51:02.360Z,99354.50
2022-11-15T08:52:19.047Z,99346.34
2022-11-15T08:53:47.954Z,99345.31
2022-11-15T08:55:16.869Z,99349.44
2022-11-15T08:56:51.639Z,99337.69
2022-11-15T08:58:09.542Z,99339.41
2022-11-15T08:59:35.558Z,99343.75
2022-11-15T09:00:53.931Z,99335.56
2022-11-15T09:02:18.554Z,99338.91
2022-11-15T09:03:26.475Z,99338.50
2022-11-15T09:04:31.489Z,99327.53
2022-11-15T09:05:38.776Z,99332.97
2022-11-15T09:06:43.444Z,99326.34
2022-11-15T09:07:47.590Z,99326.88
2022-11-15T09:08:51.586Z,99330.97
2022-11-15T09:09:55.234Z,99322.16
2022-11-15T09:11:09.478Z,99326.53
2022-11-15T09:12:13.868Z,99327.28
2022-11-15T09:13:18.642Z,99328.06
2022-11-15T09:14:22.648Z,99326.78
2022-11-15T09:15:26.759Z,99323.38
2022-11-15T09:16:33.776Z,99316.22
2022-11-15T09:17:38.121Z,99319.38
2022-11-15T09:18:42.086Z,99317.44
2022-11-15T09:19:48.447Z,99311.78
2022-11-15T09:20:56.352Z,99313.66
2022-11-15T09:22:00.131Z,99314.69
2022-11-15T09:23:06.061Z,99311.19
2022-11-15T09:24:09.784Z,99316.06
2022-11-15T09:25:14.949Z,99313.56
2022-11-15T09:26:19.734Z,99307.53
2022-11-15T09:27:24.351Z,99309.91
2022-11-15T09:28:30.636Z,99310.84
2022-11-15T09:29:35.322Z,99318.41
2022-11-15T09:31:20.992Z,99313.63
2022-11-15T09:32:43.193Z,99315.19
2022-11-15T09:33:50.926Z,99305.56
2022-11-15T09:34:55.531Z,99310.16
2022-11-15T09:36:10.786Z,99305.56
2022-11-15T09:37:20.929Z,99300.72
2022-11-15T09:38:36.948Z,99303.25
2022-11-15T09:39:50.114Z,99302.06
2022-11-15T09:41:22.852Z,99294.03
2022-11-15T09:42:33.372Z,99306.06
2022-11-15T09:43:56.219Z,99302.13
2022-11-15T09:45:42.404Z,99304.66
2022-11-15T09:48:04.992Z,99304.47
2022-11-15T09:49:22.324Z,99304.97
2022-11-15T09:50:55.611Z,99310.88
2022-11-15T09:52:02.578Z,99304.44
2022-11-15T09:54:30.426Z,99303.53
2022-11-15T09:55:22.482Z,99300.28
2022-11-15T09:56:49.330Z,99299.94
2022-11-15T09:58:21.289Z,99301.28
2022-11-15T10:00:23.698Z,99292.91
2022-11-15T10:02:15.631Z,99280.94
2022-11-15T10:03:47.345Z,99280.22
2022-11-15T10:05:19.351Z,99282.09
2022-11-15T10:06:28.671Z,99282.66
2022-11-15T10:08:27.266Z,99274.38
2022-11-15T10:09:47.031Z,99268.88
2022-11-15T10:11:35.526Z,99265.84
2022-11-15T10:12:29.106Z,99265.84
2022-11-15T10:13:38.258Z,99267.00
2022-11-15T10:14:43.722Z,99264.16
2022-11-15T10:16:21.175Z,99256.00
2022-11-15T10:18:07.530Z,99254.88
2022-11-15T10:19:17.927Z,99259.97
2022-11-15T10:20:29.960Z,99252.50
2022-11-15T10:23:00.791Z,99252.00
2022-11-15T10:24:20.357Z,99244.66
2022-11-15T10:25:30.964Z,99253.28
2022-11-15T10:26:34.999Z,99249.56
2022-11-15T10:27:44.604Z,99252.50
2022-11-15T10:28:48.698Z,99240.09
2022-11-15T10:29:55.670Z,99242.22
2022-11-15T10:31:06.204Z,99244.38
2022-11-15T10:32:15.220Z,99233.50
2022-11-15T10:33:40.989Z,99229.94
2022-11-15T10:34:49.012Z,99229.16
2022-11-15T10:36:14.245Z,99226.13
2022-11-15T10:37:31.658Z,99220.53
2022-11-15T10:38:58.235Z,99222.88
2022-11-15T10:40:30.672Z,99223.66
2022-11-15T10:41:53.493Z,99217.31
2022-11-15T10:43:28.631Z,99216.84
2022-11-15T10:44:45.660Z,99218.34
2022-11-15T10:46:46.243Z,99211.06
2022-11-15T10:48:38.601Z,99212.47
2022-11-15T10:50:07.330Z,99207.81
2022-11-15T10:51:52.010Z,99205.16
2022-11-15T10:53:10.056Z,99200.91
2022-11-15T10:55:30.526Z,99200.53
2022-11-15T10:57:14.289Z,99201.09
2022-11-15T10:58:57.918Z,99195.03
2022-11-15T11:00:42.430Z,99191.63
2022-11-15T11:01:58.961Z,99190.78
2022-11-15T11:04:02.651Z,99188.25
2022-11-15T11:05:53.877Z,99183.44
2022-11-15T11:07:47.710Z,99184.91
2022-11-15T11:09:09.220Z,99169.53
2022-11-15T11:12:37.257Z,99170.47
2022-11-15T11:15:02.024Z,99174.94
2022-11-15T11:16:50.671Z,99164.84
2022-11-15T11:18:46.386Z,99166.50
2022-11-15T11:22:33.662Z,99163.63
2022-11-15T11:23:59.658Z,99166.66
2022-11-15T11:26:05.812Z,99160.06
2022-11-15T11:27:33.717Z,99155.63
2022-11-15T11:28:53.549Z,99155.56
2022-11-15T11:30:00.570Z,99151.72
2022-11-15T11:31:23.216Z,99153.44
2022-11-15T11:32:45.508Z,99152.91
2022-11-15T11:34:46.462Z,99155.66
2022-11-15T11:36:47.557Z,99152.84
2022-11-15T13:07:46.754Z,99043.75
2022-11-15T13:08:52.135Z,99042.78
2022-11-15T13:10:29.696Z,99037.47
2022-11-15T13:11:55.665Z,99037.59
2022-11-15T13:13:05.663Z,99040.91
2022-11-15T13:14:44.984Z,99037.00
2022-11-15T13:16:13.202Z,99033.13
2022-11-15T13:17:46.020Z,99032.41
2022-11-15T13:19:13.211Z,99031.31
2022-11-15T13:20:44.587Z,99027.75
2022-11-15T13:22:13.707Z,99033.66
2022-11-15T13:23:38.308Z,99033.53
2022-11-15T13:27:04.727Z,99031.53
2022-11-15T13:29:00.187Z,99036.00
2022-11-15T13:30:07.822Z,99034.06
2022-11-15T13:31:39.091Z,99031.06
2022-11-15T13:32:47.311Z,99036.16
2022-11-15T13:33:56.469Z,99030.59
2022-11-15T13:35:36.889Z,99022.63
2022-11-15T13:36:42.977Z,99022.44
2022-11-15T13:37:47.240Z,99015.31
2022-11-15T13:39:27.444Z,99022.19
2022-11-15T13:40:38.365Z,99017.63
2022-11-15T13:41:55.496Z,99016.66
2022-11-15T13:43:24.083Z,99007.72
2022-11-15T13:44:37.811Z,99011.34
2022-11-15T13:45:44.795Z,99008.56
2022-11-15T13:47:09.622Z,99015.56
2022-11-15T13:48:43.386Z,99008.47
2022-11-15T13:49:49.935Z,99006.66
2022-11-15T13:50:54.631Z,99001.22
2022-11-15T13:52:21.614Z,99002.06
2022-11-15T13:53:30.186Z,98992.19
2022-11-15T13:54:46.597Z,98990.25
2022-11-15T13:55:52.458Z,98986.75
2022-11-15T13:57:25.248Z,98983.25
2022-11-15T13:58:47.842Z,98981.56
2022-11-15T14:00:04.928Z,98988.56
2022-11-15T14:01:20.887Z,98987.72
2022-11-15T14:02:34.490Z,98985.78
2022-11-15T14:03:55.047Z,98991.09
2022-11-15T14:05:25.047Z,98989.41
2022-11-15T14:06:33.591Z,98990.38
2022-11-15T14:07:41.842Z,98992.06
2022-11-15T14:09:34.393Z,98997.25
2022-11-15T14:10:50.166Z,98996.41
2022-11-15T14:12:13.961Z,98991.09
2022-11-15T14:13:34.645Z,98995.56
2022-11-15T14:14:47.943Z,98996.53
2022-11-15T14:15:51.750Z,98998.34
2022-11-15T14:17:04.928Z,98995.56
2022-11-15T14:18:51.650Z,98987.00
2022-11-15T14:19:58.407Z,98981.56
2022-11-15T14:21:21.299Z,98988.69
2022-11-15T14:22:33.104Z,98989.41
2022-11-15T14:23:43.194Z,98984.81
2022-11-15T14:25:11.161Z,98977.94
2022-11-15T14:26:42.105Z,98980.47
2022-11-15T14:28:16.878Z,98986.75
2022-11-15T14:29:32.727Z,98977.94
2022-11-15T14:31:44.087Z,98979.03
2022-11-15T14:33:02.607Z,98979.03
2022-11-15T14:34:16.496Z,98968.50
2022-11-15T14:35:24.736Z,98972.13
2022-11-15T14:36:29.357Z,98969.47
2022-11-15T14:37:38.770Z,98967.66
2022-11-15T14:38:49.230Z,98969.34
2022-11-15T14:39:57.882Z,98972.84
2022-11-15T14:41:01.998Z,98968.50
2022-11-15T14:42:11.264Z,98965.00
2022-11-15T14:43:16.699Z,98965.84
2022-11-15T14:44:28.938Z,98963.19
2022-11-15T14:45:36.726Z,98958.84
2022-11-15T14:46:40.700Z,98963.19
2022-11-15T14:47:50.750Z,98958.00
2022-11-15T14:48:55.197Z,98956.19
2022-11-15T14:50:00.153Z,98957.03
2022-11-15T14:51:22.114Z,98958.00
2022-11-15T14:52:37.798Z,98964.28
2022-11-15T14:53:45.859Z,98965.25
2022-11-15T14:54:50.205Z,98960.06
2022-11-15T14:55:55.090Z,98959.19
2022-11-15T14:56:59.140Z,98956.53
2022-11-15T14:58:12.844Z,98953.91
2022-11-15T14:59:16.783Z,98958.25
2022-11-15T15:00:21.472Z,98953.91
2022-11-15T15:01:37.647Z,98952.09
2022-11-15T15:03:00.045Z,98953.78
2022-11-15T15:04:09.277Z,98947.63
2022-11-15T15:05:28.323Z,98948.47
2022-11-15T15:06:34.774Z,98944.13
2022-11-15T15:07:49.640Z,98951.44
2022-11-15T15:09:01.163Z,98949.75
2022-11-15T15:11:33.757Z,98947.09
2022-11-15T15:12:42.021Z,98945.28
2022-11-15T15:14:10.304Z,98938.91
2022-11-15T15:15:35.780Z,98939.66
2022-11-15T15:16:51.893Z,98933.59
2022-11-15T15:18:12.441Z,98937.72
2022-11-15T15:20:57.351Z,98926.13
2022-11-15T15:22:07.844Z,98922.50
2022-11-15T15:23:22.102Z,98927.59
2022-11-15T15:24:36.393Z,98926.50
2022-11-15T15:25:59.427Z,98924.69
2022-11-15T15:28:49.666Z,98915.88
2022-11-15T15:29:57.572Z,98922.03
2022-11-15T15:31:05.136Z,98924.69
2022-11-15T15:32:12.245Z,98919.38
2022-11-15T15:36:11.827Z,98923.00
2022-11-15T15:37:27.096Z,98915.03
2022-11-15T15:38:36.501Z,98921.06
2022-11-15T15:39:42.397Z,98922.03
2022-11-15T15:40:47.327Z,98930.72
2022-11-15T15:41:57.189Z,98928.91
2022-11-15T15:43:01.687Z,98921.06
2022-11-15T15:44:09.978Z,98925.31
2022-11-15T15:45:16.685Z,98914.78
2022-11-15T15:46:38.451Z,98920.94
2022-11-15T15:48:31.033Z,98916.72
2022-11-15T15:49:44.615Z,98913.34
2022-11-15T15:52:40.196Z,98918.66
2022-11-15T15:53:53.350Z,98915.28
2022-11-15T15:55:04.535Z,98920.47
2022-11-15T15:56:30.546Z,98916.13
2022-11-15T15:57:53.917Z,98903.78
2022-11-15T15:59:13.735Z,98914.31
2022-11-15T16:00:20.868Z,98909.97
2022-11-15T16:01:26.360Z,98910.81
2022-11-15T16:03:41.143Z,98909.84
2022-11-15T16:08:09.102Z,98916.97
2022-11-15T16:09:19.686Z,98911.66
2022-11-15T16:10:42.602Z,98909.72
2022-11-15T16:11:48.735Z,98907.91
2022-11-15T16:12:53.998Z,98911.41
2022-11-15T16:13:57.860Z,98904.41
2022-11-15T16:15:41.016Z,98905.25
2022-11-15T16:17:04.559Z,98908.88
2022-11-15T16:18:30.994Z,98909.72
2022-11-15T16:19:42.138Z,98911.41
2022-11-15T16:20:57.906Z,98903.56
2022-11-15T16:22:01.647Z,98908.03
2022-11-15T16:23:10.125Z,98905.38
2022-11-15T16:24:14.393Z,98913.56
2022-11-15T16:25:18.747Z,98909.97
2022-11-15T16:26:31.185Z,98906.34
2022-11-15T16:27:38.490Z,98909.09
2022-11-15T16:28:45.121Z,98905.38
2022-11-15T16:29:53.377Z,98905.25
2022-11-15T16:31:13.453Z,98910.44
2022-11-15T16:32:19.323Z,98906.81
2022-11-15T16:33:33.981Z,98897.16
2022-11-15T16:34:42.766Z,98910.56
2022-11-15T16:35:49.385Z,98899.94
2022-11-15T16:37:00.840Z,98900.06
2022-11-15T16:38:09.841Z,98895.59
2022-11-15T16:39:25.222Z,98898.13
2022-11-15T16:40:36.577Z,98896.31
2022-11-15T16:41:44.441Z,98901.50
2022-11-15T16:42:48.363Z,98894.50
2022-11-15T16:43:54.135Z,98897.88
2022-11-15T16:45:08.585Z,98896.94
2022-11-15T16:46:22.843Z,98889.91
2022-11-15T16:47:26.516Z,98894.28
2022-11-15T16:48:30.867Z,98893.44
2022-11-15T16:49:35.704Z,98894.38
2022-11-15T16:50:43.217Z,98892.47
2022-11-15T16:51:50.767Z,98893.44
2022-11-15T16:52:57.525Z,98895.97
2022-11-15T16:54:08.699Z,98890.66
2022-11-15T16:55:14.337Z,98891.63
2022-11-15T16:56:31.346Z,98891.63
2022-11-15T16:57:39.708Z,98893.44
2022-11-15T16:59:00.388Z,98892.56
2022-11-15T17:00:06.836Z,98895.22
2022-11-15T17:01:28.559Z,98884.59
2022-11-15T17:02:44.709Z,98881.00
2022-11-15T17:03:53.920Z,98883.66
2022-11-15T17:05:05.599Z,98878.34
2022-11-15T17:06:22.985Z,98884.59
2022-11-15T17:07:31.436Z,98882.81
2022-11-15T17:08:36.840Z,98886.31
2022-11-15T17:09:41.231Z,98879.28
2022-11-15T17:10:51.318Z,98878.44
2022-11-15T17:11:55.918Z,98874.84
2022-11-15T17:12:59.655Z,98870.38
2022-11-15T17:14:03.695Z,98875.69
2022-11-15T17:15:14.257Z,98872.19
2022-11-15T17:16:24.561Z,98868.66
2022-11-15T17:17:29.203Z,98869.53
2022-11-15T17:18:35.576Z,98872.06
2022-11-15T17:19:43.254Z,98873.88
2022-11-15T17:20:47.658Z,98871.22
2022-11-15T17:21:51.571Z,98870.38
2022-11-15T17:23:02.333Z,98870.38
2022-11-15T17:24:11.391Z,98874.84
2022-11-15T17:25:15.697Z,98866.97
2022-11-15T17:26:39.238Z,98872.28